sensor_id;sensor_type;location;lat;lon;timestamp;P1;durP1;ratioP1;P2;durP2;ratioP2
60472;SDS011;46318;52.716;6.444;2022-11-04T00:01:57;4.38;;;3.15;;
60472;SDS011;46318;52.716;6.444;2022-11-04T00:04:23;1.98;;;1.20;;
60472;SDS011;46318;52.716;6.444;2022-11-04T00:06:51;0.80;;;0.80;;
60472;SDS011;46318;52.716;6.444;2022-11-04T00:09:19;2.72;;;1.13;;
60472;SDS011;46318;52.716;6.444;2022-11-04T00:11:51;1.15;;;0.90;;
60472;SDS011;46318;52.716;6.444;2022-11-04T00:14:35;1.85;;;0.90;;
60472;SDS011;46318;52.716;6.444;2022-11-04T00:17:01;0.93;;;0.80;;
60472;SDS011;46318;52.716;6.444;2022-11-04T00:19:47;1.33;;;0.60;;
60472;SDS011;46318;52.716;6.444;2022-11-04T00:22:34;1.60;;;1.10;;
60472;SDS011;46318;52.716;6.444;2022-11-04T00:25:20;2.10;;;0.40;;
60472;SDS011;46318;52.716;6.444;2022-11-04T00:28:12;0.57;;;0.40;;
60472;SDS011;46318;52.716;6.444;2022-11-04T00:30:59;2.13;;;0.63;;
60472;SDS011;46318;52.716;6.444;2022-11-04T00:33:46;1.10;;;0.45;;
60472;SDS011;46318;52.716;6.444;2022-11-04T00:36:13;0.50;;;0.50;;
60472;SDS011;46318;52.716;6.444;2022-11-04T00:38:40;0.50;;;0.50;;
60472;SDS011;46318;52.716;6.444;2022-11-04T00:41:06;1.17;;;0.60;;
60472;SDS011;46318;52.716;6.444;2022-11-04T00:44:03;0.80;;;0.70;;
60472;SDS011;46318;52.716;6.444;2022-11-04T00:46:30;2.72;;;0.90;;
60472;SDS011;46318;52.716;6.444;2022-11-04T00:48:57;1.75;;;0.90;;
60472;SDS011;46318;52.716;6.444;2022-11-04T00:51:23;4.53;;;0.90;;
60472;SDS011;46318;52.716;6.444;2022-11-04T00:53:50;1.65;;;0.80;;
60472;SDS011;46318;52.716;6.444;2022-11-04T00:56:16;2.22;;;1.35;;
60472;SDS011;46318;52.716;6.444;2022-11-04T00:58:42;2.70;;;1.02;;
60472;SDS011;46318;52.716;6.444;2022-11-04T01:01:08;0.85;;;0.55;;
60472;SDS011;46318;52.716;6.444;2022-11-04T01:03:36;2.13;;;0.82;;
60472;SDS011;46318;52.716;6.444;2022-11-04T01:06:02;1.77;;;0.60;;
60472;SDS011;46318;52.716;6.444;2022-11-04T01:08:28;2.53;;;0.73;;
60472;SDS011;46318;52.716;6.444;2022-11-04T01:10:54;4.43;;;1.10;;
60472;SDS011;46318;52.716;6.444;2022-11-04T01:13:19;1.13;;;0.70;;
60472;SDS011;46318;52.716;6.444;2022-11-04T01:15:45;1.60;;;0.73;;
60472;SDS011;46318;52.716;6.444;2022-11-04T01:18:11;2.08;;;1.20;;
60472;SDS011;46318;52.716;6.444;2022-11-04T01:20:37;1.33;;;0.65;;
60472;SDS011;46318;52.716;6.444;2022-11-04T01:23:03;3.22;;;0.80;;
60472;SDS011;46318;52.716;6.444;2022-11-04T01:25:29;1.08;;;0.70;;
60472;SDS011;46318;52.716;6.444;2022-11-04T01:27:54;3.00;;;0.90;;
60472;SDS011;46318;52.716;6.444;2022-11-04T01:30:20;1.60;;;0.90;;
60472;SDS011;46318;52.716;6.444;2022-11-04T01:32:46;1.63;;;0.82;;
60472;SDS011;46318;52.716;6.444;2022-11-04T01:35:11;1.55;;;1.17;;
60472;SDS011;46318;52.716;6.444;2022-11-04T01:37:37;2.63;;;1.15;;
60472;SDS011;46318;52.716;6.444;2022-11-04T01:40:03;1.08;;;0.77;;
60472;SDS011;46318;52.716;6.444;2022-11-04T01:42:29;2.70;;;0.90;;
60472;SDS011;46318;52.716;6.444;2022-11-04T01:44:56;2.55;;;1.00;;
60472;SDS011;46318;52.716;6.444;2022-11-04T01:50:06;1.52;;;1.23;;
60472;SDS011;46318;52.716;6.444;2022-11-04T01:52:55;2.25;;;1.25;;
60472;SDS011;46318;52.716;6.444;2022-11-04T01:55:23;3.92;;;1.65;;
60472;SDS011;46318;52.716;6.444;2022-11-04T01:57:54;4.07;;;2.17;;
60472;SDS011;46318;52.716;6.444;2022-11-04T02:00:26;4.40;;;2.72;;
60472;SDS011;46318;52.716;6.444;2022-11-04T02:05:26;5.18;;;2.97;;
60472;SDS011;46318;52.716;6.444;2022-11-04T02:07:54;7.28;;;3.70;;
60472;SDS011;46318;52.716;6.444;2022-11-04T02:10:23;7.95;;;3.97;;
60472;SDS011;46318;52.716;6.444;2022-11-04T02:12:52;7.72;;;3.30;;
60472;SDS011;46318;52.716;6.444;2022-11-04T02:15:22;5.15;;;3.85;;
60472;SDS011;46318;52.716;6.444;2022-11-04T02:18:20;7.45;;;3.67;;
60472;SDS011;46318;52.716;6.444;2022-11-04T02:26:58;5.10;;;3.53;;
60472;SDS011;46318;52.716;6.444;2022-11-04T02:42:17;9.95;;;3.80;;
60472;SDS011;46318;52.716;6.444;2022-11-04T02:44:59;4.85;;;3.20;;
60472;SDS011;46318;52.716;6.444;2022-11-04T02:47:39;4.30;;;3.47;;
60472;SDS011;46318;52.716;6.444;2022-11-04T02:50:48;3.70;;;2.95;;
60472;SDS011;46318;52.716;6.444;2022-11-04T02:53:59;5.53;;;3.22;;
60472;SDS011;46318;52.716;6.444;2022-11-04T02:56:22;3.53;;;2.60;;
60472;SDS011;46318;52.716;6.444;2022-11-04T02:58:53;4.50;;;2.55;;
60472;SDS011;46318;52.716;6.444;2022-11-04T03:01:25;3.17;;;2.45;;
60472;SDS011;46318;52.716;6.444;2022-11-04T03:04:05;2.53;;;1.33;;
60472;SDS011;46318;52.716;6.444;2022-11-04T03:06:37;3.05;;;1.58;;
60472;SDS011;46318;52.716;6.444;2022-11-04T03:09:05;2.60;;;1.50;;
60472;SDS011;46318;52.716;6.444;2022-11-04T03:11:34;2.00;;;1.20;;
60472;SDS011;46318;52.716;6.444;2022-11-04T03:16:39;2.33;;;1.58;;
60472;SDS011;46318;52.716;6.444;2022-11-04T03:19:12;2.72;;;1.40;;
60472;SDS011;46318;52.716;6.444;2022-11-04T03:22:08;2.67;;;1.50;;
60472;SDS011;46318;52.716;6.444;2022-11-04T03:24:39;2.30;;;1.40;;
60472;SDS011;46318;52.716;6.444;2022-11-04T03:29:48;1.73;;;0.88;;
60472;SDS011;46318;52.716;6.444;2022-11-04T03:32:38;2.38;;;0.90;;
60472;SDS011;46318;52.716;6.444;2022-11-04T03:35:09;2.55;;;0.70;;
60472;SDS011;46318;52.716;6.444;2022-11-04T03:37:36;3.75;;;0.65;;
60472;SDS011;46318;52.716;6.444;2022-11-04T03:40:02;1.80;;;0.57;;
60472;SDS011;46318;52.716;6.444;2022-11-04T03:42:32;1.73;;;0.52;;
60472;SDS011;46318;52.716;6.444;2022-11-04T03:45:04;3.92;;;0.68;;
60472;SDS011;46318;52.716;6.444;2022-11-04T03:47:31;1.95;;;0.70;;
60472;SDS011;46318;52.716;6.444;2022-11-04T03:50:01;2.38;;;0.60;;
60472;SDS011;46318;52.716;6.444;2022-11-04T03:52:36;2.88;;;0.60;;
60472;SDS011;46318;52.716;6.444;2022-11-04T03:55:03;0.55;;;0.52;;
60472;SDS011;46318;52.716;6.444;2022-11-04T03:57:33;2.60;;;0.80;;
60472;SDS011;46318;52.716;6.444;2022-11-04T04:00:17;1.85;;;1.00;;
60472;SDS011;46318;52.716;6.444;2022-11-04T04:03:05;1.30;;;0.80;;
60472;SDS011;46318;52.716;6.444;2022-11-04T04:14:03;1.27;;;0.65;;
60472;SDS011;46318;52.716;6.444;2022-11-04T04:17:20;2.15;;;0.95;;
60472;SDS011;46318;52.716;6.444;2022-11-04T04:19:58;1.20;;;0.77;;
60472;SDS011;46318;52.716;6.444;2022-11-04T04:22:34;1.88;;;0.75;;
60472;SDS011;46318;52.716;6.444;2022-11-04T04:25:06;2.85;;;1.15;;
60472;SDS011;46318;52.716;6.444;2022-11-04T04:27:54;1.85;;;0.98;;
60472;SDS011;46318;52.716;6.444;2022-11-04T04:30:21;2.05;;;0.90;;
60472;SDS011;46318;52.716;6.444;2022-11-04T04:32:58;1.83;;;0.80;;
60472;SDS011;46318;52.716;6.444;2022-11-04T04:35:53;2.35;;;0.90;;
60472;SDS011;46318;52.716;6.444;2022-11-04T04:44:08;1.73;;;0.60;;
60472;SDS011;46318;52.716;6.444;2022-11-04T04:47:15;1.80;;;0.63;;
60472;SDS011;46318;52.716;6.444;2022-11-04T04:49:49;0.80;;;0.80;;
60472;SDS011;46318;52.716;6.444;2022-11-04T04:52:19;1.40;;;0.40;;
60472;SDS011;46318;52.716;6.444;2022-11-04T04:54:47;1.45;;;0.40;;
60472;SDS011;46318;52.716;6.444;2022-11-04T04:57:13;0.88;;;0.40;;
60472;SDS011;46318;52.716;6.444;2022-11-04T04:59:39;1.38;;;0.40;;
60472;SDS011;46318;52.716;6.444;2022-11-04T05:02:05;0.77;;;0.30;;
60472;SDS011;46318;52.716;6.444;2022-11-04T05:04:30;0.47;;;0.30;;
60472;SDS011;46318;52.716;6.444;2022-11-04T05:06:56;0.30;;;0.30;;
60472;SDS011;46318;52.716;6.444;2022-11-04T05:09:22;0.88;;;0.40;;
60472;SDS011;46318;52.716;6.444;2022-11-04T05:11:47;2.33;;;0.50;;
60472;SDS011;46318;52.716;6.444;2022-11-04T05:14:13;1.25;;;0.40;;
60472;SDS011;46318;52.716;6.444;2022-11-04T05:16:39;1.35;;;0.60;;
60472;SDS011;46318;52.716;6.444;2022-11-04T05:19:05;0.60;;;0.40;;
60472;SDS011;46318;52.716;6.444;2022-11-04T05:21:31;2.58;;;0.40;;
60472;SDS011;46318;52.716;6.444;2022-11-04T05:23:57;2.25;;;0.60;;
60472;SDS011;46318;52.716;6.444;2022-11-04T05:26:22;1.38;;;0.47;;
60472;SDS011;46318;52.716;6.444;2022-11-04T05:28:48;2.17;;;0.60;;
60472;SDS011;46318;52.716;6.444;2022-11-04T05:31:14;1.38;;;1.02;;
60472;SDS011;46318;52.716;6.444;2022-11-04T05:33:39;1.40;;;0.70;;
60472;SDS011;46318;52.716;6.444;2022-11-04T05:36:06;1.30;;;0.75;;
60472;SDS011;46318;52.716;6.444;2022-11-04T05:38:37;4.47;;;1.25;;
60472;SDS011;46318;52.716;6.444;2022-11-04T05:41:04;4.13;;;1.25;;
60472;SDS011;46318;52.716;6.444;2022-11-04T05:43:32;3.00;;;1.48;;
60472;SDS011;46318;52.716;6.444;2022-11-04T05:45:58;2.05;;;1.50;;
60472;SDS011;46318;52.716;6.444;2022-11-04T05:48:25;2.08;;;1.30;;
60472;SDS011;46318;52.716;6.444;2022-11-04T05:50:51;1.35;;;1.25;;
60472;SDS011;46318;52.716;6.444;2022-11-04T05:53:17;2.92;;;0.90;;
60472;SDS011;46318;52.716;6.444;2022-11-04T05:55:42;2.40;;;1.13;;
60472;SDS011;46318;52.716;6.444;2022-11-04T05:58:08;2.03;;;1.05;;
60472;SDS011;46318;52.716;6.444;2022-11-04T06:00:34;1.40;;;0.98;;
60472;SDS011;46318;52.716;6.444;2022-11-04T06:03:00;4.13;;;1.27;;
60472;SDS011;46318;52.716;6.444;2022-11-04T06:05:27;1.70;;;0.90;;
60472;SDS011;46318;52.716;6.444;2022-11-04T06:07:53;4.03;;;1.70;;
60472;SDS011;46318;52.716;6.444;2022-11-04T06:10:20;1.80;;;1.10;;
60472;SDS011;46318;52.716;6.444;2022-11-04T06:12:49;2.63;;;1.15;;
60472;SDS011;46318;52.716;6.444;2022-11-04T06:15:15;1.73;;;0.90;;
60472;SDS011;46318;52.716;6.444;2022-11-04T06:17:41;1.10;;;0.80;;
60472;SDS011;46318;52.716;6.444;2022-11-04T06:20:07;2.22;;;0.88;;
60472;SDS011;46318;52.716;6.444;2022-11-04T06:22:33;1.20;;;0.80;;
60472;SDS011;46318;52.716;6.444;2022-11-04T06:24:59;2.25;;;0.90;;
60472;SDS011;46318;52.716;6.444;2022-11-04T06:27:25;2.35;;;0.70;;
60472;SDS011;46318;52.716;6.444;2022-11-04T06:29:50;2.00;;;0.95;;
60472;SDS011;46318;52.716;6.444;2022-11-04T06:32:17;3.08;;;1.60;;
60472;SDS011;46318;52.716;6.444;2022-11-04T06:34:44;1.42;;;1.15;;
60472;SDS011;46318;52.716;6.444;2022-11-04T06:37:10;3.00;;;1.00;;
60472;SDS011;46318;52.716;6.444;2022-11-04T06:39:36;1.73;;;1.10;;
60472;SDS011;46318;52.716;6.444;2022-11-04T06:42:02;1.70;;;1.10;;
60472;SDS011;46318;52.716;6.444;2022-11-04T06:44:29;2.53;;;1.00;;
60472;SDS011;46318;52.716;6.444;2022-11-04T06:46:54;2.50;;;1.38;;
60472;SDS011;46318;52.716;6.444;2022-11-04T06:49:21;1.42;;;0.93;;
60472;SDS011;46318;52.716;6.444;2022-11-04T06:51:47;1.15;;;1.05;;
60472;SDS011;46318;52.716;6.444;2022-11-04T06:54:14;1.40;;;1.30;;
60472;SDS011;46318;52.716;6.444;2022-11-04T06:56:40;1.63;;;1.30;;
60472;SDS011;46318;52.716;6.444;2022-11-04T06:59:07;3.20;;;1.77;;
60472;SDS011;46318;52.716;6.444;2022-11-04T07:01:39;2.95;;;2.10;;
60472;SDS011;46318;52.716;6.444;2022-11-04T07:04:05;4.25;;;2.75;;
60472;SDS011;46318;52.716;6.444;2022-11-04T07:06:31;4.43;;;3.00;;
60472;SDS011;46318;52.716;6.444;2022-11-04T07:08:57;6.78;;;3.50;;
60472;SDS011;46318;52.716;6.444;2022-11-04T07:11:25;4.70;;;3.30;;
60472;SDS011;46318;52.716;6.444;2022-11-04T07:13:53;4.90;;;3.58;;
60472;SDS011;46318;52.716;6.444;2022-11-04T07:16:19;10.02;;;4.97;;
60472;SDS011;46318;52.716;6.444;2022-11-04T07:18:45;7.88;;;5.35;;
60472;SDS011;46318;52.716;6.444;2022-11-04T07:21:10;8.20;;;5.78;;
60472;SDS011;46318;52.716;6.444;2022-11-04T07:23:37;8.90;;;5.32;;
60472;SDS011;46318;52.716;6.444;2022-11-04T07:26:03;13.00;;;7.22;;
60472;SDS011;46318;52.716;6.444;2022-11-04T07:28:31;12.88;;;7.65;;
60472;SDS011;46318;52.716;6.444;2022-11-04T07:30:59;13.13;;;8.02;;
60472;SDS011;46318;52.716;6.444;2022-11-04T07:33:26;11.90;;;8.05;;
60472;SDS011;46318;52.716;6.444;2022-11-04T07:35:52;14.55;;;9.25;;
60472;SDS011;46318;52.716;6.444;2022-11-04T07:38:19;13.77;;;8.88;;
60472;SDS011;46318;52.716;6.444;2022-11-04T07:40:46;12.52;;;8.77;;
60472;SDS011;46318;52.716;6.444;2022-11-04T07:43:12;16.27;;;9.50;;
60472;SDS011;46318;52.716;6.444;2022-11-04T07:45:38;15.45;;;9.75;;
60472;SDS011;46318;52.716;6.444;2022-11-04T07:48:04;15.30;;;10.00;;
60472;SDS011;46318;52.716;6.444;2022-11-04T07:50:30;15.48;;;9.82;;
60472;SDS011;46318;52.716;6.444;2022-11-04T07:52:57;14.90;;;9.55;;
60472;SDS011;46318;52.716;6.444;2022-11-04T07:55:24;12.50;;;9.45;;
60472;SDS011;46318;52.716;6.444;2022-11-04T07:57:50;17.40;;;10.32;;
60472;SDS011;46318;52.716;6.444;2022-11-04T08:00:18;15.35;;;10.57;;
60472;SDS011;46318;52.716;6.444;2022-11-04T08:02:44;15.20;;;10.90;;
60472;SDS011;46318;52.716;6.444;2022-11-04T08:05:11;18.35;;;10.95;;
60472;SDS011;46318;52.716;6.444;2022-11-04T08:07:37;16.85;;;10.25;;
60472;SDS011;46318;52.716;6.444;2022-11-04T08:10:04;15.00;;;10.27;;
60472;SDS011;46318;52.716;6.444;2022-11-04T08:12:30;16.83;;;11.13;;
60472;SDS011;46318;52.716;6.444;2022-11-04T08:14:57;15.27;;;10.80;;
60472;SDS011;46318;52.716;6.444;2022-11-04T08:17:23;15.65;;;11.38;;
60472;SDS011;46318;52.716;6.444;2022-11-04T08:19:49;14.30;;;11.02;;
60472;SDS011;46318;52.716;6.444;2022-11-04T08:22:15;18.17;;;12.90;;
60472;SDS011;46318;52.716;6.444;2022-11-04T08:24:41;19.23;;;12.70;;
60472;SDS011;46318;52.716;6.444;2022-11-04T08:27:07;21.13;;;13.15;;
60472;SDS011;46318;52.716;6.444;2022-11-04T08:29:34;19.38;;;13.82;;
60472;SDS011;46318;52.716;6.444;2022-11-04T08:32:01;20.17;;;14.05;;
60472;SDS011;46318;52.716;6.444;2022-11-04T08:34:27;20.23;;;13.30;;
60472;SDS011;46318;52.716;6.444;2022-11-04T08:36:53;19.40;;;12.95;;
60472;SDS011;46318;52.716;6.444;2022-11-04T08:39:21;18.90;;;13.32;;
60472;SDS011;46318;52.716;6.444;2022-11-04T08:41:48;21.00;;;13.15;;
60472;SDS011;46318;52.716;6.444;2022-11-04T08:44:14;20.63;;;14.23;;
60472;SDS011;46318;52.716;6.444;2022-11-04T08:46:41;20.52;;;13.77;;
60472;SDS011;46318;52.716;6.444;2022-11-04T08:49:08;26.35;;;15.48;;
60472;SDS011;46318;52.716;6.444;2022-11-04T08:51:35;25.65;;;16.00;;
60472;SDS011;46318;52.716;6.444;2022-11-04T08:54:04;22.25;;;16.65;;
60472;SDS011;46318;52.716;6.444;2022-11-04T08:56:31;25.42;;;17.23;;
60472;SDS011;46318;52.716;6.444;2022-11-04T08:59:00;25.00;;;16.70;;
60472;SDS011;46318;52.716;6.444;2022-11-04T09:01:30;29.65;;;17.48;;
60472;SDS011;46318;52.716;6.444;2022-11-04T09:03:59;27.52;;;17.98;;
60472;SDS011;46318;52.716;6.444;2022-11-04T09:06:30;26.20;;;18.15;;
60472;SDS011;46318;52.716;6.444;2022-11-04T09:09:02;29.35;;;19.77;;
60472;SDS011;46318;52.716;6.444;2022-11-04T09:11:31;28.67;;;19.73;;
60472;SDS011;46318;52.716;6.444;2022-11-04T09:14:02;33.28;;;22.23;;
60472;SDS011;46318;52.716;6.444;2022-11-04T09:16:29;30.85;;;21.17;;
60472;SDS011;46318;52.716;6.444;2022-11-04T09:18:57;31.38;;;21.33;;
60472;SDS011;46318;52.716;6.444;2022-11-04T09:21:24;33.30;;;22.13;;
60472;SDS011;46318;52.716;6.444;2022-11-04T09:23:51;35.72;;;22.38;;
60472;SDS011;46318;52.716;6.444;2022-11-04T09:26:17;33.75;;;23.33;;
60472;SDS011;46318;52.716;6.444;2022-11-04T09:28:44;34.10;;;23.40;;
60472;SDS011;46318;52.716;6.444;2022-11-04T09:31:14;33.03;;;23.55;;
60472;SDS011;46318;52.716;6.444;2022-11-04T09:33:43;33.53;;;23.75;;
60472;SDS011;46318;52.716;6.444;2022-11-04T09:36:10;36.53;;;25.20;;
60472;SDS011;46318;52.716;6.444;2022-11-04T09:38:37;36.22;;;24.00;;
60472;SDS011;46318;52.716;6.444;2022-11-04T09:41:20;33.65;;;23.55;;
60472;SDS011;46318;52.716;6.444;2022-11-04T09:44:52;30.92;;;22.65;;
60472;SDS011;46318;52.716;6.444;2022-11-04T09:47:02;30.42;;;21.77;;
60472;SDS011;46318;52.716;6.444;2022-11-04T09:49:29;34.47;;;23.27;;
60472;SDS011;46318;52.716;6.444;2022-11-04T09:52:01;31.27;;;22.52;;
60472;SDS011;46318;52.716;6.444;2022-11-04T09:54:38;30.17;;;22.13;;
60472;SDS011;46318;52.716;6.444;2022-11-04T09:57:15;30.60;;;21.55;;
60472;SDS011;46318;52.716;6.444;2022-11-04T09:59:42;34.22;;;24.20;;
60472;SDS011;46318;52.716;6.444;2022-11-04T10:05:14;32.17;;;22.95;;
60472;SDS011;46318;52.716;6.444;2022-11-04T10:16:21;32.28;;;22.45;;
60472;SDS011;46318;52.716;6.444;2022-11-04T10:21:48;29.65;;;20.70;;
60472;SDS011;46318;52.716;6.444;2022-11-04T10:24:40;29.55;;;21.27;;
60472;SDS011;46318;52.716;6.444;2022-11-04T10:27:37;26.67;;;21.80;;
60472;SDS011;46318;52.716;6.444;2022-11-04T10:30:23;31.52;;;22.30;;
60472;SDS011;46318;52.716;6.444;2022-11-04T10:35:38;30.42;;;22.77;;
60472;SDS011;46318;52.716;6.444;2022-11-04T10:38:15;30.95;;;23.27;;
60472;SDS011;46318;52.716;6.444;2022-11-04T10:40:46;31.17;;;23.60;;
60472;SDS011;46318;52.716;6.444;2022-11-04T10:43:17;29.53;;;21.73;;
60472;SDS011;46318;52.716;6.444;2022-11-04T10:48:54;29.35;;;22.95;;
60472;SDS011;46318;52.716;6.444;2022-11-04T10:51:39;29.10;;;22.30;;
60472;SDS011;46318;52.716;6.444;2022-11-04T10:54:06;28.58;;;23.63;;
60472;SDS011;46318;52.716;6.444;2022-11-04T10:56:39;29.02;;;22.95;;
60472;SDS011;46318;52.716;6.444;2022-11-04T11:02:09;29.73;;;23.35;;
60472;SDS011;46318;52.716;6.444;2022-11-04T11:04:35;31.55;;;24.38;;
60472;SDS011;46318;52.716;6.444;2022-11-04T11:07:09;29.73;;;23.92;;
60472;SDS011;46318;52.716;6.444;2022-11-04T11:09:46;31.98;;;25.50;;
60472;SDS011;46318;52.716;6.444;2022-11-04T11:12:25;31.25;;;24.02;;
60472;SDS011;46318;52.716;6.444;2022-11-04T11:15:08;31.10;;;23.67;;
60472;SDS011;46318;52.716;6.444;2022-11-04T11:17:52;29.45;;;23.48;;
60472;SDS011;46318;52.716;6.444;2022-11-04T11:20:25;27.40;;;23.02;;
60472;SDS011;46318;52.716;6.444;2022-11-04T11:22:51;30.25;;;22.08;;
60472;SDS011;46318;52.716;6.444;2022-11-04T11:25:22;24.85;;;20.65;;
60472;SDS011;46318;52.716;6.444;2022-11-04T11:30:52;24.95;;;20.00;;
60472;SDS011;46318;52.716;6.444;2022-11-04T11:33:27;23.17;;;19.13;;
60472;SDS011;46318;52.716;6.444;2022-11-04T11:36:04;22.75;;;19.55;;
60472;SDS011;46318;52.716;6.444;2022-11-04T11:39:04;23.70;;;19.52;;
60472;SDS011;46318;52.716;6.444;2022-11-04T11:41:51;22.60;;;18.58;;
60472;SDS011;46318;52.716;6.444;2022-11-04T11:44:29;23.55;;;17.52;;
60472;SDS011;46318;52.716;6.444;2022-11-04T11:47:02;20.38;;;17.20;;
60472;SDS011;46318;52.716;6.444;2022-11-04T11:49:35;19.88;;;16.58;;
60472;SDS011;46318;52.716;6.444;2022-11-04T11:57:39;17.08;;;14.35;;
60472;SDS011;46318;52.716;6.444;2022-11-04T12:00:15;17.70;;;13.68;;
60472;SDS011;46318;52.716;6.444;2022-11-04T12:05:41;9.55;;;7.18;;
60472;SDS011;46318;52.716;6.444;2022-11-04T12:10:59;6.95;;;6.15;;
60472;SDS011;46318;52.716;6.444;2022-11-04T12:13:44;7.97;;;6.00;;
60472;SDS011;46318;52.716;6.444;2022-11-04T12:16:30;10.23;;;6.40;;
60472;SDS011;46318;52.716;6.444;2022-11-04T12:19:38;12.73;;;9.40;;
60472;SDS011;46318;52.716;6.444;2022-11-04T12:27:40;9.25;;;7.38;;
60472;SDS011;46318;52.716;6.444;2022-11-04T12:30:26;12.80;;;7.68;;
60472;SDS011;46318;52.716;6.444;2022-11-04T12:38:27;8.98;;;6.30;;
60472;SDS011;46318;52.716;6.444;2022-11-04T12:47:14;11.15;;;7.53;;
60472;SDS011;46318;52.716;6.444;2022-11-04T13:00:36;6.25;;;3.45;;
60472;SDS011;46318;52.716;6.444;2022-11-04T13:03:07;6.50;;;3.50;;
60472;SDS011;46318;52.716;6.444;2022-11-04T13:06:03;7.18;;;3.03;;
60472;SDS011;46318;52.716;6.444;2022-11-04T13:08:44;5.07;;;2.00;;
60472;SDS011;46318;52.716;6.444;2022-11-04T13:11:22;5.03;;;1.65;;
60472;SDS011;46318;52.716;6.444;2022-11-04T13:16:40;5.53;;;1.63;;
60472;SDS011;46318;52.716;6.444;2022-11-04T13:19:15;3.47;;;1.52;;
60472;SDS011;46318;52.716;6.444;2022-11-04T13:21:50;4.93;;;1.80;;
60472;SDS011;46318;52.716;6.444;2022-11-04T13:24:27;2.30;;;1.60;;
60472;SDS011;46318;52.716;6.444;2022-11-04T13:27:03;4.32;;;1.80;;
60472;SDS011;46318;52.716;6.444;2022-11-04T13:29:44;5.10;;;2.17;;
60472;SDS011;46318;52.716;6.444;2022-11-04T13:35:02;3.80;;;1.75;;
60472;SDS011;46318;52.716;6.444;2022-11-04T13:37:47;2.95;;;1.50;;
60472;SDS011;46318;52.716;6.444;2022-11-04T13:40:27;4.80;;;1.90;;
60472;SDS011;46318;52.716;6.444;2022-11-04T13:43:32;5.50;;;2.00;;
60472;SDS011;46318;52.716;6.444;2022-11-04T13:49:03;5.25;;;1.90;;
60472;SDS011;46318;52.716;6.444;2022-11-04T13:51:59;4.68;;;1.70;;
60472;SDS011;46318;52.716;6.444;2022-11-04T13:54:38;5.13;;;1.88;;
60472;SDS011;46318;52.716;6.444;2022-11-04T13:57:13;5.60;;;1.85;;
60472;SDS011;46318;52.716;6.444;2022-11-04T14:18:32;3.55;;;1.98;;
60472;SDS011;46318;52.716;6.444;2022-11-04T14:21:02;4.72;;;2.00;;
60472;SDS011;46318;52.716;6.444;2022-11-04T14:26:11;3.13;;;1.30;;
60472;SDS011;46318;52.716;6.444;2022-11-04T14:28:40;4.38;;;1.50;;
60472;SDS011;46318;52.716;6.444;2022-11-04T14:31:10;3.85;;;1.00;;
60472;SDS011;46318;52.716;6.444;2022-11-04T14:34:00;3.33;;;1.30;;
60472;SDS011;46318;52.716;6.444;2022-11-04T14:47:25;4.40;;;1.30;;
60472;SDS011;46318;52.716;6.444;2022-11-04T14:57:51;8.82;;;4.07;;
60472;SDS011;46318;52.716;6.444;2022-11-04T15:05:48;6.53;;;2.25;;
60472;SDS011;46318;52.716;6.444;2022-11-04T15:11:17;4.75;;;1.75;;
60472;SDS011;46318;52.716;6.444;2022-11-04T15:14:19;6.22;;;1.70;;
60472;SDS011;46318;52.716;6.444;2022-11-04T15:16:52;8.30;;;2.28;;
60472;SDS011;46318;52.716;6.444;2022-11-04T15:19:31;5.97;;;1.83;;
60472;SDS011;46318;52.716;6.444;2022-11-04T15:22:00;6.13;;;1.80;;
60472;SDS011;46318;52.716;6.444;2022-11-04T15:24:28;6.40;;;1.77;;
60472;SDS011;46318;52.716;6.444;2022-11-04T15:26:58;5.32;;;1.73;;
60472;SDS011;46318;52.716;6.444;2022-11-04T15:29:28;6.22;;;1.75;;
60472;SDS011;46318;52.716;6.444;2022-11-04T15:31:55;6.38;;;1.77;;
60472;SDS011;46318;52.716;6.444;2022-11-04T15:34:27;5.90;;;1.88;;
60472;SDS011;46318;52.716;6.444;2022-11-04T15:36:58;6.35;;;2.20;;
60472;SDS011;46318;52.716;6.444;2022-11-04T15:39:41;6.22;;;2.08;;
60472;SDS011;46318;52.716;6.444;2022-11-04T15:42:16;5.65;;;1.73;;
60472;SDS011;46318;52.716;6.444;2022-11-04T15:53:50;6.45;;;2.00;;
60472;SDS011;46318;52.716;6.444;2022-11-04T15:56:30;5.68;;;2.25;;
60472;SDS011;46318;52.716;6.444;2022-11-04T15:59:11;7.88;;;1.85;;
60472;SDS011;46318;52.716;6.444;2022-11-04T16:01:49;5.32;;;1.90;;
60472;SDS011;46318;52.716;6.444;2022-11-04T16:04:16;4.95;;;1.80;;
60472;SDS011;46318;52.716;6.444;2022-11-04T16:06:46;3.63;;;1.63;;
60472;SDS011;46318;52.716;6.444;2022-11-04T16:09:48;5.75;;;2.08;;
60472;SDS011;46318;52.716;6.444;2022-11-04T16:12:26;4.35;;;1.80;;
60472;SDS011;46318;52.716;6.444;2022-11-04T16:15:01;6.90;;;2.10;;
60472;SDS011;46318;52.716;6.444;2022-11-04T16:17:28;4.88;;;2.80;;
60472;SDS011;46318;52.716;6.444;2022-11-04T16:19:56;6.88;;;2.67;;
60472;SDS011;46318;52.716;6.444;2022-11-04T16:22:27;5.63;;;2.28;;
60472;SDS011;46318;52.716;6.444;2022-11-04T16:25:01;5.07;;;2.58;;
60472;SDS011;46318;52.716;6.444;2022-11-04T16:27:30;5.00;;;2.35;;
60472;SDS011;46318;52.716;6.444;2022-11-04T16:32:44;8.68;;;2.95;;
60472;SDS011;46318;52.716;6.444;2022-11-04T16:35:16;5.47;;;2.70;;
60472;SDS011;46318;52.716;6.444;2022-11-04T16:37:53;4.50;;;2.55;;
60472;SDS011;46318;52.716;6.444;2022-11-04T16:40:20;4.93;;;2.30;;
60472;SDS011;46318;52.716;6.444;2022-11-04T16:42:48;5.47;;;2.55;;
60472;SDS011;46318;52.716;6.444;2022-11-04T16:47:54;4.28;;;2.50;;
60472;SDS011;46318;52.716;6.444;2022-11-04T16:50:21;5.60;;;2.58;;
60472;SDS011;46318;52.716;6.444;2022-11-04T16:52:48;5.45;;;2.42;;
60472;SDS011;46318;52.716;6.444;2022-11-04T16:55:15;6.35;;;2.80;;
60472;SDS011;46318;52.716;6.444;2022-11-04T16:57:42;5.70;;;2.40;;
60472;SDS011;46318;52.716;6.444;2022-11-04T17:00:19;6.60;;;2.40;;
60472;SDS011;46318;52.716;6.444;2022-11-04T17:02:48;7.72;;;2.83;;
60472;SDS011;46318;52.716;6.444;2022-11-04T17:05:14;4.78;;;2.80;;
60472;SDS011;46318;52.716;6.444;2022-11-04T17:07:40;4.95;;;2.60;;
60472;SDS011;46318;52.716;6.444;2022-11-04T17:10:14;5.95;;;2.95;;
60472;SDS011;46318;52.716;6.444;2022-11-04T17:12:46;4.88;;;2.75;;
60472;SDS011;46318;52.716;6.444;2022-11-04T17:15:12;9.35;;;3.35;;
60472;SDS011;46318;52.716;6.444;2022-11-04T17:17:40;5.93;;;3.22;;
60472;SDS011;46318;52.716;6.444;2022-11-04T17:20:08;6.55;;;3.70;;
60472;SDS011;46318;52.716;6.444;2022-11-04T17:22:41;6.55;;;3.15;;
60472;SDS011;46318;52.716;6.444;2022-11-04T17:25:14;8.30;;;3.42;;
60472;SDS011;46318;52.716;6.444;2022-11-04T17:27:46;4.68;;;2.83;;
60472;SDS011;46318;52.716;6.444;2022-11-04T17:30:12;5.95;;;3.40;;
60472;SDS011;46318;52.716;6.444;2022-11-04T17:32:39;5.78;;;3.47;;
60472;SDS011;46318;52.716;6.444;2022-11-04T17:35:05;6.97;;;3.60;;
60472;SDS011;46318;52.716;6.444;2022-11-04T17:37:31;7.38;;;3.60;;
60472;SDS011;46318;52.716;6.444;2022-11-04T17:39:58;6.20;;;3.40;;
60472;SDS011;46318;52.716;6.444;2022-11-04T17:42:23;6.43;;;3.45;;
60472;SDS011;46318;52.716;6.444;2022-11-04T17:45:08;6.65;;;3.78;;
60472;SDS011;46318;52.716;6.444;2022-11-04T17:47:34;6.65;;;3.42;;
60472;SDS011;46318;52.716;6.444;2022-11-04T17:50:01;6.55;;;3.60;;
60472;SDS011;46318;52.716;6.444;2022-11-04T17:52:28;9.40;;;4.05;;
60472;SDS011;46318;52.716;6.444;2022-11-04T17:54:54;7.50;;;3.83;;
60472;SDS011;46318;52.716;6.444;2022-11-04T17:57:19;8.65;;;3.90;;
60472;SDS011;46318;52.716;6.444;2022-11-04T17:59:45;7.95;;;3.63;;
60472;SDS011;46318;52.716;6.444;2022-11-04T18:02:11;10.68;;;4.03;;
60472;SDS011;46318;52.716;6.444;2022-11-04T18:04:37;8.57;;;3.70;;
60472;SDS011;46318;52.716;6.444;2022-11-04T18:07:02;11.20;;;3.33;;
60472;SDS011;46318;52.716;6.444;2022-11-04T18:09:29;6.85;;;3.35;;